Time;durP1;ratioP1;P1;durP2;ratioP2;P2;SDS_P1;SDS_P2;PMS_P1;PMS_P2;Temp;Humidity;BMP_temperature;BMP_pressure;BME280_temperature;BME280_humidity;BME280_pressure;Samples;Min_cycle;Max_cycle;Signal;HPM_P1;HPM_P2
2021/12/31 00:00:20;;;;;;;;;;;24.00;53.80;;;;;;5075180;28;1139;-41
2021/12/31 00:02:47;;;;;;;;;;;24.00;54.10;;;;;;5075416;28;998;-40
2021/12/31 00:05:14;;;;;;;;;;;24.00;54.00;;;;;;5074990;28;1010;-41
2021/12/31 00:07:42;;;;;;;;;;;24.00;53.80;;;;;;5075503;28;931;-41
2021/12/31 00:10:09;;;;;;;;;;;24.00;54.00;;;;;;5075665;28;1858;-40
2021/12/31 00:12:36;;;;;;;;;;;24.00;54.10;;;;;;5075191;28;1984;-38
2021/12/31 00:15:03;;;;;;;;;;;24.00;53.90;;;;;;5074935;28;945;-40
2021/12/31 00:17:30;;;;;;;;;;;24.10;53.60;;;;;;5075759;28;1018;-40
2021/12/31 00:20:03;;;;;;;;;;;24.10;53.70;;;;;;5074999;28;964;-39
2021/12/31 00:25:15;;;;;;;;;;;24.10;53.60;;;;;;5078468;27;1019;-40
2021/12/31 00:27:42;;;;;;;;;;;24.10;53.70;;;;;;5075210;27;961;-40
2021/12/31 00:30:09;;;;;;;;;;;24.10;53.60;;;;;;5075213;28;999;-39
2021/12/31 00:32:36;;;;;;;;;;;24.10;53.60;;;;;;5074972;28;1975;-41
2021/12/31 00:35:03;;;;;;;;;;;24.10;53.60;;;;;;5075248;28;1030;-40
2021/12/31 00:37:31;;;;;;;;;;;24.10;53.60;;;;;;5075431;28;969;-41
2021/12/31 00:39:58;;;;;;;;;;;24.10;53.70;;;;;;5074581;28;1019;-41
2021/12/31 00:42:26;;;;;;;;;;;24.00;53.70;;;;;;5075490;28;943;-41
2021/12/31 00:44:53;;;;;;;;;;;24.10;53.50;;;;;;5075450;28;989;-39
2021/12/31 00:47:20;;;;;;;;;;;24.00;53.70;;;;;;5072960;28;876;-41
2021/12/31 00:49:46;;;;;;;;;;;24.10;53.70;;;;;;5074656;28;987;-42
2021/12/31 00:52:13;;;;;;;;;;;24.00;53.70;;;;;;5075090;27;1007;-41
2021/12/31 00:54:40;;;;;;;;;;;24.00;53.70;;;;;;5075292;28;1879;-41
2021/12/31 01:07:58;;;;;;;;;;;24.00;52.80;;;;;;5116133;27;1375;-33
2021/12/31 01:10:27;;;;;;;;;;;23.80;54.80;;;;;;5116438;28;983;-40
2021/12/31 01:12:54;;;;;;;;;;;23.80;58.10;;;;;;5116284;28;957;-38
2021/12/31 01:15:33;;;;;;;;;;;23.70;54.70;;;;;;5116275;28;1984;-39
2021/12/31 01:20:44;;;;;;;;;;;23.60;55.00;;;;;;5115051;28;887;-34
2021/12/31 01:23:14;;;;;;;;;;;23.60;55.00;;;;;;5115424;28;924;-34
2021/12/31 01:25:41;;;;;;;;;;;23.60;55.20;;;;;;5115492;28;992;-34
2021/12/31 01:28:08;;;;;;;;;;;23.60;55.20;;;;;;5115483;28;948;-34
2021/12/31 01:30:35;;;;;;;;;;;23.60;55.00;;;;;;5115163;28;1007;-34
2021/12/31 01:33:01;;;;;;;;;;;23.60;55.00;;;;;;5115231;28;932;-34
2021/12/31 01:35:28;;;;;;;;;;;23.60;55.10;;;;;;5115075;28;1975;-33
2021/12/31 01:37:55;;;;;;;;;;;23.50;55.10;;;;;;5115086;28;992;-36
2021/12/31 01:40:23;;;;;;;;;;;23.60;55.10;;;;;;5115494;28;981;-33
2021/12/31 01:42:50;;;;;;;;;;;23.60;55.20;;;;;;5115134;28;948;-34
2021/12/31 01:45:20;;;;;;;;;;;23.50;55.00;;;;;;5114929;28;1038;-34
2021/12/31 01:47:56;;;;;;;;;;;23.50;55.10;;;;;;5115302;28;1017;-34
2021/12/31 01:50:24;;;;;;;;;;;23.50;55.00;;;;;;5115123;28;944;-34
2021/12/31 01:52:51;;;;;;;;;;;23.50;55.00;;;;;;5115401;28;1026;-35
2021/12/31 01:55:18;;;;;;;;;;;23.50;55.00;;;;;;5115076;28;880;-35
2021/12/31 01:57:46;;;;;;;;;;;23.50;55.00;;;;;;5114666;28;1901;-35
2021/12/31 02:00:13;;;;;;;;;;;23.50;55.00;;;;;;5114355;28;1004;-35
2021/12/31 02:02:43;;;;;;;;;;;23.50;55.00;;;;;;5114164;28;1023;-34
2021/12/31 02:05:10;;;;;;;;;;;23.50;54.90;;;;;;5114658;28;1023;-34
2021/12/31 02:07:37;;;;;;;;;;;23.50;55.00;;;;;;5108459;28;1016;-36
2021/12/31 02:10:06;;;;;;;;;;;23.50;54.90;;;;;;5100537;28;1004;-34
2021/12/31 02:12:33;;;;;;;;;;;23.50;54.90;;;;;;5100252;28;1004;-34
2021/12/31 02:15:02;;;;;;;;;;;23.60;54.90;;;;;;5100917;28;913;-34
2021/12/31 02:17:29;;;;;;;;;;;23.50;54.90;;;;;;5100298;28;1990;-35
2021/12/31 02:20:00;;;;;;;;;;;23.60;54.90;;;;;;5100453;28;912;-34
2021/12/31 02:22:28;;;;;;;;;;;23.50;54.80;;;;;;5100245;28;1031;-34
2021/12/31 02:24:56;;;;;;;;;;;23.60;54.90;;;;;;5100517;28;905;-34
2021/12/31 02:27:23;;;;;;;;;;;23.60;54.90;;;;;;5100352;28;1003;-34
2021/12/31 02:29:50;;;;;;;;;;;23.60;54.80;;;;;;5100133;28;1001;-35
2021/12/31 02:32:17;;;;;;;;;;;23.60;54.80;;;;;;5100135;28;1111;-34
2021/12/31 02:34:43;;;;;;;;;;;23.60;54.70;;;;;;5100601;28;963;-34
2021/12/31 02:37:11;;;;;;;;;;;23.60;54.70;;;;;;5100537;28;1981;-34
2021/12/31 02:39:41;;;;;;;;;;;23.60;54.80;;;;;;5100095;28;1046;-33
2021/12/31 02:42:08;;;;;;;;;;;23.60;54.70;;;;;;5100229;28;1130;-34
2021/12/31 02:44:35;;;;;;;;;;;23.60;54.90;;;;;;5099902;28;1000;-34
2021/12/31 02:47:04;;;;;;;;;;;23.50;54.70;;;;;;5100260;28;980;-35
2021/12/31 02:49:35;;;;;;;;;;;23.50;54.70;;;;;;5099883;28;1075;-34
2021/12/31 02:52:02;;;;;;;;;;;23.50;54.70;;;;;;5100181;28;1012;-34
2021/12/31 02:54:31;;;;;;;;;;;23.50;54.80;;;;;;5100327;28;1027;-34
2021/12/31 02:56:58;;;;;;;;;;;23.50;54.80;;;;;;5100214;28;1906;-33
2021/12/31 02:59:25;;;;;;;;;;;23.50;54.90;;;;;;5099966;28;1008;-34
2021/12/31 03:01:52;;;;;;;;;;;23.50;54.80;;;;;;5100406;28;996;-33
2021/12/31 03:04:21;;;;;;;;;;;23.50;54.80;;;;;;5099938;28;1035;-41
2021/12/31 03:06:49;;;;;;;;;;;23.60;54.80;;;;;;5099789;28;1043;-35
2021/12/31 03:09:17;;;;;;;;;;;23.60;54.70;;;;;;5099811;28;900;-34
2021/12/31 03:11:45;;;;;;;;;;;23.60;54.80;;;;;;5100418;28;1008;-34
2021/12/31 03:14:12;;;;;;;;;;;23.60;54.80;;;;;;5099761;28;988;-34
2021/12/31 03:16:39;;;;;;;;;;;23.60;54.80;;;;;;5100137;28;1957;-34
2021/12/31 03:19:06;;;;;;;;;;;23.60;54.80;;;;;;5098798;28;992;-34
2021/12/31 03:21:32;;;;;;;;;;;23.60;54.80;;;;;;5099626;28;1015;-34
2021/12/31 03:24:00;;;;;;;;;;;23.60;54.80;;;;;;5100506;28;972;-35
2021/12/31 03:26:27;;;;;;;;;;;23.60;54.90;;;;;;5099604;28;944;-34
2021/12/31 03:28:55;;;;;;;;;;;23.60;54.80;;;;;;5099435;28;937;-34
2021/12/31 03:31:22;;;;;;;;;;;23.60;54.80;;;;;;5100470;28;909;-33
2021/12/31 03:33:48;;;;;;;;;;;23.60;54.80;;;;;;5099548;28;1005;-35
2021/12/31 03:36:15;;;;;;;;;;;23.60;54.80;;;;;;5099361;28;1898;-35
2021/12/31 03:38:42;;;;;;;;;;;23.60;54.70;;;;;;5099326;28;1019;-33
2021/12/31 03:44:23;;;;;;;;;;;23.60;54.70;;;;;;5098334;28;707;-36
2021/12/31 03:46:50;;;;;;;;;;;23.60;54.70;;;;;;5098848;28;1013;-35
2021/12/31 03:49:16;;;;;;;;;;;23.60;54.80;;;;;;5099153;28;917;-34
2021/12/31 03:51:44;;;;;;;;;;;23.60;54.70;;;;;;5098885;28;975;-36
2021/12/31 03:54:11;;;;;;;;;;;23.60;54.70;;;;;;5098549;28;957;-33
2021/12/31 03:56:37;;;;;;;;;;;23.60;54.70;;;;;;5098590;28;1981;-33
2021/12/31 03:59:04;;;;;;;;;;;23.60;54.70;;;;;;5098633;28;968;-34
2021/12/31 04:01:32;;;;;;;;;;;23.60;54.70;;;;;;5098191;28;1781;-34
2021/12/31 04:03:59;;;;;;;;;;;23.60;54.70;;;;;;5098331;28;793;-35
2021/12/31 04:06:25;;;;;;;;;;;23.60;54.80;;;;;;5097393;28;999;-35
2021/12/31 04:08:52;;;;;;;;;;;23.60;54.80;;;;;;5098080;28;916;-34
2021/12/31 04:11:19;;;;;;;;;;;23.60;54.70;;;;;;5098285;28;899;-35
2021/12/31 04:13:46;;;;;;;;;;;23.60;54.70;;;;;;5098459;28;925;-31
2021/12/31 04:16:13;;;;;;;;;;;23.60;54.70;;;;;;5097870;28;1985;-31
2021/12/31 04:18:41;;;;;;;;;;;23.60;54.70;;;;;;5098086;28;875;-31
2021/12/31 04:21:08;;;;;;;;;;;23.60;54.70;;;;;;5098076;28;1020;-32
2021/12/31 04:23:47;;;;;;;;;;;23.60;54.70;;;;;;5098302;28;1023;-33
2021/12/31 04:26:14;;;;;;;;;;;23.60;54.70;;;;;;5098376;28;948;-33
2021/12/31 04:28:41;;;;;;;;;;;23.60;54.70;;;;;;5097949;28;1085;-32
2021/12/31 04:31:08;;;;;;;;;;;23.60;54.70;;;;;;5097902;28;1002;-31
2021/12/31 04:33:34;;;;;;;;;;;23.60;54.70;;;;;;5097730;28;865;-32
2021/12/31 04:36:03;;;;;;;;;;;23.60;54.70;;;;;;5097898;28;987;-32
2021/12/31 04:38:29;;;;;;;;;;;23.60;54.70;;;;;;5097905;28;1905;-32
2021/12/31 04:40:56;;;;;;;;;;;23.60;54.70;;;;;;5097385;28;931;-32
2021/12/31 04:43:23;;;;;;;;;;;23.60;54.70;;;;;;5097631;28;973;-32
2021/12/31 04:45:50;;;;;;;;;;;23.60;54.70;;;;;;5097851;28;993;-32
2021/12/31 04:48:16;;;;;;;;;;;23.60;54.70;;;;;;5097441;28;896;-33
2021/12/31 04:50:43;;;;;;;;;;;23.60;54.70;;;;;;5097348;28;933;-32
2021/12/31 04:53:11;;;;;;;;;;;23.60;54.60;;;;;;5097934;28;1004;-33
2021/12/31 04:55:38;;;;;;;;;;;23.60;54.60;;;;;;5097284;28;970;-32
2021/12/31 04:58:05;;;;;;;;;;;23.60;54.60;;;;;;5097800;28;1905;-32
2021/12/31 05:00:31;;;;;;;;;;;23.60;54.60;;;;;;5097186;28;1039;-32
2021/12/31 05:02:58;;;;;;;;;;;23.60;54.60;;;;;;5097702;28;869;-32
2021/12/31 05:05:25;;;;;;;;;;;23.60;54.60;;;;;;5097656;28;975;-31
2021/12/31 05:07:51;;;;;;;;;;;23.60;54.60;;;;;;5097439;28;1248;-32
2021/12/31 05:10:21;;;;;;;;;;;23.60;54.60;;;;;;5097066;28;1021;-32
2021/12/31 05:12:52;;;;;;;;;;;23.60;54.70;;;;;;5097249;28;1008;-32
2021/12/31 05:15:26;;;;;;;;;;;23.60;54.60;;;;;;5097656;28;971;-32
2021/12/31 05:17:52;;;;;;;;;;;23.60;54.60;;;;;;5097787;28;1902;-32
2021/12/31 05:20:19;;;;;;;;;;;23.60;54.50;;;;;;5097277;28;1020;-31
2021/12/31 05:22:46;;;;;;;;;;;23.60;54.50;;;;;;5097566;28;968;-31
2021/12/31 05:25:13;;;;;;;;;;;23.60;54.40;;;;;;5097635;28;996;-32
2021/12/31 05:27:41;;;;;;;;;;;23.60;54.50;;;;;;5097160;28;948;-31
2021/12/31 05:30:08;;;;;;;;;;;23.50;54.50;;;;;;5097294;28;1007;-31
2021/12/31 05:32:35;;;;;;;;;;;23.50;54.60;;;;;;5097559;28;1020;-35
2021/12/31 05:35:02;;;;;;;;;;;23.50;54.70;;;;;;5097441;28;1024;-35
2021/12/31 05:37:29;;;;;;;;;;;23.50;54.70;;;;;;5097388;28;1981;-34
2021/12/31 05:39:55;;;;;;;;;;;23.50;54.70;;;;;;5096690;28;1203;-36
2021/12/31 05:42:22;;;;;;;;;;;23.50;54.70;;;;;;5097764;28;1309;-34
2021/12/31 05:44:50;;;;;;;;;;;23.50;54.70;;;;;;5100853;28;999;-35
2021/12/31 05:47:17;;;;;;;;;;;23.50;55.90;;;;;;5100519;28;1129;-34
2021/12/31 05:49:45;;;;;;;;;;;23.50;54.70;;;;;;5100984;28;1016;-35
2021/12/31 05:52:12;;;;;;;;;;;23.50;54.80;;;;;;5100142;28;989;-33
2021/12/31 05:54:39;;;;;;;;;;;23.50;54.80;;;;;;5100646;28;1026;-36
2021/12/31 05:57:06;;;;;;;;;;;23.50;54.80;;;;;;5100731;28;1997;-36
2021/12/31 05:59:32;;;;;;;;;;;23.50;54.80;;;;;;5099872;28;1007;-33
2021/12/31 06:02:00;;;;;;;;;;;23.50;54.80;;;;;;5100260;28;1019;-36
2021/12/31 06:04:27;;;;;;;;;;;23.50;54.90;;;;;;5100798;28;885;-36
2021/12/31 06:06:54;;;;;;;;;;;23.50;54.80;;;;;;5100422;28;1154;-37
2021/12/31 06:09:21;;;;;;;;;;;23.50;54.80;;;;;;5100432;28;944;-33
2021/12/31 06:11:48;;;;;;;;;;;23.50;54.80;;;;;;5100094;28;1867;-33
2021/12/31 06:14:14;;;;;;;;;;;23.50;54.70;;;;;;5100866;28;1016;-33
2021/12/31 06:16:42;;;;;;;;;;;23.50;54.60;;;;;;5100569;28;987;-35
2021/12/31 06:19:11;;;;;;;;;;;23.50;54.60;;;;;;5100321;28;1031;-33
2021/12/31 06:21:39;;;;;;;;;;;23.60;54.70;;;;;;5100546;28;984;-33
2021/12/31 06:24:06;;;;;;;;;;;23.60;54.60;;;;;;5100779;28;1228;-33
2021/12/31 06:26:33;;;;;;;;;;;23.60;54.60;;;;;;5100705;28;1036;-33
2021/12/31 06:29:00;;;;;;;;;;;23.50;54.60;;;;;;5101273;28;913;-34
2021/12/31 06:31:26;;;;;;;;;;;23.50;54.50;;;;;;5100140;28;1007;-33
2021/12/31 06:33:53;;;;;;;;;;;23.50;54.60;;;;;;5099897;28;939;-40
2021/12/31 06:36:21;;;;;;;;;;;23.50;54.70;;;;;;5099934;28;992;-34
2021/12/31 06:38:49;;;;;;;;;;;23.50;54.80;;;;;;5099797;28;1985;-33
2021/12/31 06:41:17;;;;;;;;;;;23.50;54.80;;;;;;5099864;28;988;-33
2021/12/31 06:43:43;;;;;;;;;;;23.50;54.90;;;;;;5099747;28;948;-34
2021/12/31 06:46:10;;;;;;;;;;;23.50;54.90;;;;;;5099765;28;1069;-33
2021/12/31 06:48:36;;;;;;;;;;;23.50;54.90;;;;;;5099995;28;1080;-34
2021/12/31 06:51:03;;;;;;;;;;;23.50;54.80;;;;;;5099591;28;1016;-33
2021/12/31 06:53:31;;;;;;;;;;;23.50;54.80;;;;;;5099549;28;993;-33
2021/12/31 06:56:01;;;;;;;;;;;23.50;54.90;;;;;;5099673;28;992;-34
2021/12/31 06:58:28;;;;;;;;;;;23.50;54.80;;;;;;5099388;28;2022;-41
2021/12/31 07:00:55;;;;;;;;;;;23.50;54.80;;;;;;5099456;28;953;-40
2021/12/31 07:03:22;;;;;;;;;;;23.50;54.80;;;;;;5099436;28;944;-39
2021/12/31 07:05:48;;;;;;;;;;;23.50;54.80;;;;;;5099553;28;1132;-40
2021/12/31 07:08:15;;;;;;;;;;;23.50;54.80;;;;;;5099227;28;1126;-39
2021/12/31 07:10:43;;;;;;;;;;;23.50;54.80;;;;;;5099288;28;940;-43
2021/12/31 07:13:11;;;;;;;;;;;23.50;54.80;;;;;;5098996;28;952;-39
2021/12/31 07:15:39;;;;;;;;;;;23.50;54.80;;;;;;5098415;28;979;-39
2021/12/31 07:18:06;;;;;;;;;;;23.60;54.80;;;;;;5099433;28;1976;-40
2021/12/31 07:20:33;;;;;;;;;;;23.50;54.80;;;;;;5099678;28;963;-40
2021/12/31 07:23:03;;;;;;;;;;;23.50;54.80;;;;;;5098910;28;1000;-40
2021/12/31 07:25:30;;;;;;;;;;;23.50;54.80;;;;;;5098563;28;1038;-43
2021/12/31 07:27:58;;;;;;;;;;;23.50;54.80;;;;;;5098941;28;996;-41
2021/12/31 07:30:24;;;;;;;;;;;23.60;54.80;;;;;;5098457;28;1284;-39
2021/12/31 07:32:51;;;;;;;;;;;23.50;54.60;;;;;;5098614;28;972;-42
2021/12/31 07:35:18;;;;;;;;;;;23.50;54.70;;;;;;5097838;28;964;-43
2021/12/31 07:37:45;;;;;;;;;;;23.50;54.70;;;;;;5098361;28;1898;-39
2021/12/31 07:40:12;;;;;;;;;;;23.50;54.70;;;;;;5099745;28;908;-40
2021/12/31 07:42:39;;;;;;;;;;;23.50;54.80;;;;;;5099107;28;1016;-41
2021/12/31 07:45:08;;;;;;;;;;;23.50;54.70;;;;;;5098584;28;981;-38
2021/12/31 07:47:35;;;;;;;;;;;23.50;54.80;;;;;;5098747;28;1392;-40
2021/12/31 07:50:01;;;;;;;;;;;23.50;54.70;;;;;;5098946;28;1000;-41
2021/12/31 07:52:28;;;;;;;;;;;23.50;54.70;;;;;;5098827;28;1306;-39
2021/12/31 07:54:55;;;;;;;;;;;23.50;54.70;;;;;;5098369;28;949;-41
2021/12/31 07:57:22;;;;;;;;;;;23.50;54.70;;;;;;5098186;28;1974;-39
2021/12/31 07:59:48;;;;;;;;;;;23.50;54.70;;;;;;5098689;28;933;-38
2021/12/31 08:02:17;;;;;;;;;;;23.50;54.70;;;;;;5098737;28;1003;-36
2021/12/31 08:04:43;;;;;;;;;;;23.50;54.80;;;;;;5097545;28;951;-35
2021/12/31 08:07:10;;;;;;;;;;;23.50;54.70;;;;;;5097920;28;1768;-35
2021/12/31 08:09:37;;;;;;;;;;;23.50;54.70;;;;;;5097818;28;1251;-37
2021/12/31 08:12:04;;;;;;;;;;;23.50;54.70;;;;;;5096571;28;982;-36
2021/12/31 08:14:31;;;;;;;;;;;23.50;54.80;;;;;;5097468;28;1001;-35
2021/12/31 08:16:58;;;;;;;;;;;23.50;54.60;;;;;;5097882;28;1031;-37
2021/12/31 08:19:26;;;;;;;;;;;23.50;54.60;;;;;;5097984;28;1890;-34
2021/12/31 08:21:53;;;;;;;;;;;23.50;54.70;;;;;;5097701;28;1036;-35
2021/12/31 08:24:20;;;;;;;;;;;23.50;54.60;;;;;;5098335;28;1298;-35
2021/12/31 08:26:46;;;;;;;;;;;23.50;54.60;;;;;;5098008;28;1007;-36
2021/12/31 08:29:13;;;;;;;;;;;23.50;54.60;;;;;;5098207;28;999;-36
2021/12/31 08:31:41;;;;;;;;;;;23.50;54.60;;;;;;5097588;28;1008;-35
2021/12/31 08:34:08;;;;;;;;;;;23.50;54.60;;;;;;5097593;28;869;-35
2021/12/31 08:36:36;;;;;;;;;;;23.50;54.60;;;;;;5097345;28;948;-36
2021/12/31 08:39:04;;;;;;;;;;;23.50;54.60;;;;;;5097203;28;1979;-35
2021/12/31 08:41:31;;;;;;;;;;;23.50;54.60;;;;;;5097487;28;979;-35
2021/12/31 08:43:58;;;;;;;;;;;23.50;54.50;;;;;;5097340;28;1398;-36
2021/12/31 08:46:24;;;;;;;;;;;23.50;54.40;;;;;;5097723;28;1098;-36
2021/12/31 08:48:51;;;;;;;;;;;23.50;54.50;;;;;;5097675;28;1022;-35
2021/12/31 08:51:18;;;;;;;;;;;23.50;54.40;;;;;;5096940;28;965;-35
2021/12/31 08:53:46;;;;;;;;;;;23.50;54.40;;;;;;5096592;28;1025;-36
2021/12/31 08:56:13;;;;;;;;;;;23.50;54.40;;;;;;5097032;28;1004;-36
2021/12/31 08:58:39;;;;;;;;;;;23.50;54.40;;;;;;5096963;28;1898;-36
2021/12/31 09:01:06;;;;;;;;;;;23.50;54.40;;;;;;5095665;28;1012;-35
2021/12/31 09:03:33;;;;;;;;;;;23.60;54.40;;;;;;5096858;28;1144;-35
2021/12/31 09:05:59;;;;;;;;;;;23.50;54.30;;;;;;5096992;28;1231;-36
2021/12/31 09:08:26;;;;;;;;;;;23.50;54.30;;;;;;5096834;28;1013;-35
2021/12/31 09:10:54;;;;;;;;;;;23.50;54.20;;;;;;5096625;28;1046;-36
2021/12/31 09:13:21;;;;;;;;;;;23.60;54.30;;;;;;5095881;28;1027;-35
2021/12/31 09:15:48;;;;;;;;;;;23.60;54.30;;;;;;5096742;28;970;-35
2021/12/31 09:18:15;;;;;;;;;;;23.50;54.30;;;;;;5099192;28;1981;-34
2021/12/31 09:20:41;;;;;;;;;;;23.50;54.30;;;;;;5101211;28;1031;-35
2021/12/31 09:23:08;;;;;;;;;;;23.50;54.30;;;;;;5100879;28;1042;-35
2021/12/31 09:25:35;;;;;;;;;;;23.50;54.40;;;;;;5101253;28;947;-35
2021/12/31 09:28:03;;;;;;;;;;;23.50;54.40;;;;;;5101008;28;1016;-35
2021/12/31 09:30:30;;;;;;;;;;;23.50;54.40;;;;;;5099935;28;1019;-35
2021/12/31 09:32:57;;;;;;;;;;;23.50;54.40;;;;;;5100402;28;1016;-35
2021/12/31 09:35:23;;;;;;;;;;;23.50;54.30;;;;;;5100709;28;957;-36
2021/12/31 09:37:50;;;;;;;;;;;23.50;54.40;;;;;;5099788;28;1968;-35
2021/12/31 09:40:18;;;;;;;;;;;23.50;54.30;;;;;;5100008;28;999;-37
2021/12/31 09:42:53;;;;;;;;;;;23.50;54.40;;;;;;5100644;28;1104;-35
2021/12/31 09:45:21;;;;;;;;;;;23.50;54.30;;;;;;5099234;28;1050;-36
2021/12/31 09:47:48;;;;;;;;;;;23.50;55.50;;;;;;5099193;28;968;-39
2021/12/31 09:50:15;;;;;;;;;;;23.50;54.40;;;;;;5099790;28;1190;-41
2021/12/31 09:52:42;;;;;;;;;;;23.50;54.40;;;;;;5100101;28;953;-35
2021/12/31 09:55:09;;;;;;;;;;;23.50;54.30;;;;;;5099685;28;1177;-35
2021/12/31 09:57:36;;;;;;;;;;;23.50;54.30;;;;;;5100238;28;1168;-35
2021/12/31 10:00:04;;;;;;;;;;;23.50;54.30;;;;;;5100144;28;1902;-42
2021/12/31 10:02:34;;;;;;;;;;;23.50;54.30;;;;;;5100106;28;992;-36
2021/12/31 10:05:01;;;;;;;;;;;23.50;54.40;;;;;;5099566;28;985;-35
2021/12/31 10:07:30;;;;;;;;;;;23.50;54.30;;;;;;5099327;28;1013;-35
2021/12/31 10:10:04;;;;;;;;;;;23.50;54.30;;;;;;5099992;28;1832;-33
2021/12/31 10:12:43;;;;;;;;;;;23.50;54.30;;;;;;5098805;28;1005;-35
2021/12/31 10:15:10;;;;;;;;;;;23.50;54.30;;;;;;5099223;28;989;-41
2021/12/31 10:17:38;;;;;;;;;;;23.50;54.40;;;;;;5099169;28;1185;-34
2021/12/31 10:20:05;;;;;;;;;;;23.50;54.40;;;;;;5098677;28;1906;-35
2021/12/31 10:22:32;;;;;;;;;;;23.50;55.50;;;;;;5098474;28;949;-36
2021/12/31 10:24:59;;;;;;;;;;;23.50;54.40;;;;;;5098779;28;1008;-41
2021/12/31 10:27:26;;;;;;;;;;;23.50;55.00;;;;;;5099200;28;1263;-41
2021/12/31 10:29:56;;;;;;;;;;;23.50;54.40;;;;;;5099214;28;1182;-39
2021/12/31 10:32:24;;;;;;;;;;;23.60;54.50;;;;;;5100228;28;1047;-40
2021/12/31 10:34:52;;;;;;;;;;;23.50;54.40;;;;;;5099755;28;932;-40
2021/12/31 10:37:20;;;;;;;;;;;23.50;54.40;;;;;;5099005;28;997;-39
2021/12/31 10:39:54;;;;;;;;;;;23.50;54.50;;;;;;5098790;28;1901;-38
2021/12/31 10:42:21;;;;;;;;;;;23.50;54.40;;;;;;5098626;28;976;-39
2021/12/31 10:44:49;;;;;;;;;;;23.50;54.40;;;;;;5098352;28;913;-39
2021/12/31 10:47:17;;;;;;;;;;;23.60;54.50;;;;;;5098628;28;1119;-39
2021/12/31 10:50:02;;;;;;;;;;;23.50;54.40;;;;;;5098393;28;980;-39
2021/12/31 10:52:36;;;;;;;;;;;23.50;54.50;;;;;;5098612;28;1124;-39
2021/12/31 10:55:14;;;;;;;;;;;23.50;54.50;;;;;;5098880;28;1036;-40
2021/12/31 10:57:41;;;;;;;;;;;23.50;54.40;;;;;;5098875;28;1000;-41
2021/12/31 11:00:09;;;;;;;;;;;23.50;54.50;;;;;;5098379;28;1906;-41
2021/12/31 11:02:37;;;;;;;;;;;23.50;54.40;;;;;;5098277;28;969;-39
2021/12/31 11:05:05;;;;;;;;;;;23.50;54.50;;;;;;5098167;28;940;-38
2021/12/31 11:07:33;;;;;;;;;;;23.50;54.40;;;;;;5097313;28;1262;-38
2021/12/31 11:10:01;;;;;;;;;;;23.50;54.40;;;;;;5096577;28;996;-41
2021/12/31 11:12:28;;;;;;;;;;;23.50;54.40;;;;;;5097647;28;1005;-42
2021/12/31 11:14:55;;;;;;;;;;;23.50;54.40;;;;;;5096167;28;988;-39
2021/12/31 11:17:22;;;;;;;;;;;23.50;54.50;;;;;;5096781;28;1045;-40
2021/12/31 11:19:49;;;;;;;;;;;23.50;54.40;;;;;;5096271;28;1976;-40
2021/12/31 11:22:17;;;;;;;;;;;23.50;54.50;;;;;;5097875;28;912;-39
2021/12/31 11:24:47;;;;;;;;;;;23.50;54.50;;;;;;5096099;28;980;-38
2021/12/31 11:27:30;;;;;;;;;;;23.50;54.70;;;;;;5096895;28;1021;-40
2021/12/31 11:29:57;;;;;;;;;;;23.50;54.50;;;;;;5096643;28;961;-38
2021/12/31 11:32:39;;;;;;;;;;;23.50;54.50;;;;;;5097504;28;1182;-38
2021/12/31 11:35:25;;;;;;;;;;;23.50;54.60;;;;;;5096227;28;1208;-40
2021/12/31 11:37:52;;;;;;;;;;;23.50;54.70;;;;;;5097596;28;1033;-38
2021/12/31 11:40:30;;;;;;;;;;;23.50;54.80;;;;;;5096040;28;1970;-41
2021/12/31 11:43:19;;;;;;;;;;;23.50;55.00;;;;;;5097444;28;1179;-41
2021/12/31 11:46:21;;;;;;;;;;;23.50;55.20;;;;;;5096633;28;1440;-43
2021/12/31 11:48:52;;;;;;;;;;;23.50;55.00;;;;;;5096425;28;2132;-41
2021/12/31 11:51:19;;;;;;;;;;;23.60;55.00;;;;;;5097574;28;958;-39
2021/12/31 11:54:06;;;;;;;;;;;23.60;55.00;;;;;;5097354;28;996;-42
2021/12/31 11:56:52;;;;;;;;;;;23.60;55.00;;;;;;5096673;28;1036;-41
2021/12/31 11:59:32;;;;;;;;;;;23.60;55.10;;;;;;5095835;28;1897;-35
2021/12/31 12:02:06;;;;;;;;;;;23.60;55.10;;;;;;5096796;28;1009;-36
2021/12/31 12:04:34;;;;;;;;;;;23.60;55.10;;;;;;5096017;28;945;-35
2021/12/31 12:07:02;;;;;;;;;;;23.70;55.10;;;;;;5096580;28;1230;-37
2021/12/31 12:09:43;;;;;;;;;;;23.70;55.10;;;;;;5097281;28;1017;-36
2021/12/31 12:12:13;;;;;;;;;;;23.70;55.00;;;;;;5096001;28;1325;-37
2021/12/31 12:14:40;;;;;;;;;;;23.70;55.40;;;;;;5096969;28;1036;-37
2021/12/31 12:17:08;;;;;;;;;;;23.70;54.90;;;;;;5097498;28;992;-36
2021/12/31 12:19:59;;;;;;;;;;;23.70;54.80;;;;;;5097161;28;1979;-35
2021/12/31 12:22:26;;;;;;;;;;;23.70;54.80;;;;;;5080763;28;1333;-37
2021/12/31 12:24:53;;;;;;;;;;;23.80;55.20;;;;;;5096779;28;1024;-39
2021/12/31 12:27:22;;;;;;;;;;;23.80;55.10;;;;;;5097087;28;979;-41
2021/12/31 12:29:49;;;;;;;;;;;23.70;55.10;;;;;;5097234;28;1201;-40
2021/12/31 12:32:19;;;;;;;;;;;23.70;55.20;;;;;;5096255;28;1012;-41
2021/12/31 12:34:46;;;;;;;;;;;23.70;55.20;;;;;;5097518;28;1871;-41
2021/12/31 12:37:12;;;;;;;;;;;23.70;55.20;;;;;;5097531;28;1142;-40
2021/12/31 12:39:39;;;;;;;;;;;23.70;55.20;;;;;;5096352;28;1976;-40
2021/12/31 12:42:07;;;;;;;;;;;23.70;55.20;;;;;;5096140;28;960;-39
2021/12/31 12:44:36;;;;;;;;;;;23.70;55.10;;;;;;5096492;28;996;-40
2021/12/31 12:47:04;;;;;;;;;;;23.60;55.00;;;;;;5096573;28;1094;-43
2021/12/31 12:49:30;;;;;;;;;;;23.60;55.00;;;;;;5095729;28;936;-40
2021/12/31 12:52:10;;;;;;;;;;;23.60;55.10;;;;;;5096091;28;1003;-41
2021/12/31 12:54:37;;;;;;;;;;;23.70;55.20;;;;;;5097059;28;1013;-39
2021/12/31 12:57:04;;;;;;;;;;;23.60;55.00;;;;;;5096174;28;1586;-40
2021/12/31 12:59:34;;;;;;;;;;;23.60;55.00;;;;;;5096293;28;1898;-42
2021/12/31 13:02:03;;;;;;;;;;;23.60;55.00;;;;;;5096633;28;985;-39
2021/12/31 13:04:30;;;;;;;;;;;23.60;55.00;;;;;;5097015;28;1168;-40
2021/12/31 13:07:00;;;;;;;;;;;23.60;55.00;;;;;;5096657;28;1875;-41
2021/12/31 13:09:29;;;;;;;;;;;23.60;55.00;;;;;;5096531;28;1016;-39
2021/12/31 13:11:59;;;;;;;;;;;23.70;54.90;;;;;;5096796;28;1022;-36
2021/12/31 13:14:29;;;;;;;;;;;23.70;54.90;;;;;;5096328;28;1024;-37
2021/12/31 13:16:57;;;;;;;;;;;23.70;55.00;;;;;;5096682;28;916;-35
2021/12/31 13:19:30;;;;;;;;;;;23.60;54.90;;;;;;5095250;28;1972;-35
2021/12/31 13:22:01;;;;;;;;;;;23.70;54.90;;;;;;5095676;28;988;-35
2021/12/31 13:24:28;;;;;;;;;;;23.60;54.90;;;;;;5096117;28;1020;-36
2021/12/31 13:26:57;;;;;;;;;;;23.60;54.90;;;;;;5095118;28;965;-36
2021/12/31 13:29:30;;;;;;;;;;;23.60;55.00;;;;;;5096002;28;1027;-35
2021/12/31 13:32:04;;;;;;;;;;;23.60;54.80;;;;;;5096048;28;1060;-36
2021/12/31 13:34:40;;;;;;;;;;;23.60;54.90;;;;;;5095558;28;948;-35
2021/12/31 13:37:07;;;;;;;;;;;23.60;54.80;;;;;;5095770;28;1021;-36
2021/12/31 13:39:39;;;;;;;;;;;23.60;54.80;;;;;;5095010;28;1993;-36
2021/12/31 13:42:09;;;;;;;;;;;23.60;54.80;;;;;;5096193;28;991;-35
2021/12/31 13:44:37;;;;;;;;;;;23.60;54.70;;;;;;5096169;28;966;-35
2021/12/31 13:47:05;;;;;;;;;;;23.60;54.70;;;;;;5096589;28;987;-35
2021/12/31 13:49:32;;;;;;;;;;;23.60;54.80;;;;;;5096119;28;854;-35
2021/12/31 13:52:03;;;;;;;;;;;23.60;54.70;;;;;;5096204;28;917;-35
2021/12/31 13:54:34;;;;;;;;;;;23.60;54.60;;;;;;5097465;28;952;-33
2021/12/31 13:57:01;;;;;;;;;;;23.60;54.70;;;;;;5096579;28;1031;-33
2021/12/31 13:59:35;;;;;;;;;;;23.60;54.60;;;;;;5096197;28;1906;-34
2021/12/31 14:02:02;;;;;;;;;;;23.60;54.70;;;;;;5095813;28;908;-32
2021/12/31 14:04:29;;;;;;;;;;;23.60;54.60;;;;;;5098769;28;996;-33
2021/12/31 14:07:01;;;;;;;;;;;23.60;54.60;;;;;;5100235;28;1221;-33
2021/12/31 14:09:31;;;;;;;;;;;23.60;54.60;;;;;;5100304;28;1055;-33
2021/12/31 14:12:02;;;;;;;;;;;23.60;54.50;;;;;;5099451;28;967;-32
2021/12/31 14:14:29;;;;;;;;;;;23.60;54.60;;;;;;5099103;28;1001;-33
2021/12/31 14:16:56;;;;;;;;;;;23.60;54.50;;;;;;5098877;28;940;-33
2021/12/31 14:19:22;;;;;;;;;;;23.60;54.60;;;;;;5099250;28;1976;-32
2021/12/31 14:21:49;;;;;;;;;;;23.50;52.40;;;;;;5099443;28;1830;-32
2021/12/31 14:24:16;;;;;;;;;;;23.50;50.80;;;;;;5099781;28;983;-32
2021/12/31 14:26:44;;;;;;;;;;;23.40;50.80;;;;;;5099689;28;932;-32
2021/12/31 14:29:11;;;;;;;;;;;23.40;51.40;;;;;;5098892;28;1306;-32
2021/12/31 14:31:38;;;;;;;;;;;23.40;51.70;;;;;;5099928;28;878;-31
2021/12/31 14:34:04;;;;;;;;;;;23.40;52.00;;;;;;5099275;28;1012;-32
2021/12/31 14:36:31;;;;;;;;;;;23.50;52.00;;;;;;5099095;28;936;-32
2021/12/31 14:38:58;;;;;;;;;;;23.50;52.10;;;;;;5098491;28;949;-34
2021/12/31 14:41:25;;;;;;;;;;;23.60;52.20;;;;;;5099493;28;1898;-39
2021/12/31 14:43:58;;;;;;;;;;;23.60;52.40;;;;;;5099541;28;970;-39
2021/12/31 14:46:25;;;;;;;;;;;23.50;52.40;;;;;;5098874;28;932;-41
2021/12/31 14:48:52;;;;;;;;;;;23.50;52.10;;;;;;5097003;28;999;-41
2021/12/31 14:51:19;;;;;;;;;;;23.50;51.60;;;;;;5097945;28;936;-39
2021/12/31 14:53:45;;;;;;;;;;;23.50;51.80;;;;;;5098443;28;1019;-44
2021/12/31 14:56:12;;;;;;;;;;;23.50;52.20;;;;;;5097409;28;1013;-39
2021/12/31 14:58:39;;;;;;;;;;;23.50;52.90;;;;;;5097513;28;908;-40
2021/12/31 15:01:07;;;;;;;;;;;23.50;52.90;;;;;;5098471;28;1905;-39